Time;durP1;ratioP1;P1;durP2;ratioP2;P2;SDS_P1;SDS_P2;PMS_P1;PMS_P2;Temp;Humidity;BMP_temperature;BMP_pressure;BME280_temperature;BME280_humidity;BME280_pressure;Samples;Min_cycle;Max_cycle;Signal;HPM_P1;HPM_P2
2023/01/03 00:00:10;;;;;;;11.63;9.23;;;9.90;88.50;;;;;;5036242;28;20045;-59
2023/01/03 00:02:36;;;;;;;12.07;9.50;;;9.90;88.50;;;;;;5045003;28;20063;-59
2023/01/03 00:05:02;;;;;;;12.48;9.43;;;9.90;88.40;;;;;;5043769;28;20478;-58
2023/01/03 00:07:34;;;;;;;13.15;9.55;;;10.00;88.50;;;;;;5046339;28;20057;-57
2023/01/03 00:10:05;;;;;;;11.30;9.32;;;10.00;88.30;;;;;;5042889;28;20029;-57
2023/01/03 00:12:31;;;;;;;10.05;8.60;;;10.00;88.20;;;;;;5044930;28;20071;-64
2023/01/03 00:14:57;;;;;;;11.80;9.18;;;10.00;88.00;;;;;;5034292;28;20073;-65
2023/01/03 00:17:23;;;;;;;12.68;10.35;;;10.00;87.40;;;;;;5039826;28;20028;-57
2023/01/03 00:19:49;;;;;;;11.77;9.82;;;10.00;86.30;;;;;;5046943;28;20029;-57
2023/01/03 00:22:15;;;;;;;12.75;9.88;;;9.90;85.70;;;;;;5037695;28;20456;-58
2023/01/03 00:24:43;;;;;;;12.23;10.32;;;9.80;85.20;;;;;;5046756;28;20474;-57
2023/01/03 00:27:09;;;;;;;12.07;10.15;;;9.70;85.00;;;;;;5045009;28;20031;-65
2023/01/03 00:29:35;;;;;;;11.20;9.38;;;9.60;84.70;;;;;;5046017;28;20033;-64
2023/01/03 00:32:01;;;;;;;12.48;9.63;;;9.50;84.60;;;;;;5042245;28;20033;-64
2023/01/03 00:34:27;;;;;;;11.50;10.20;;;9.40;84.50;;;;;;5043330;28;20483;-64
2023/01/03 00:36:53;;;;;;;12.43;9.70;;;9.30;84.10;;;;;;5048344;28;20527;-59
2023/01/03 00:39:20;;;;;;;12.10;9.52;;;9.20;84.00;;;;;;5041348;28;20105;-59
2023/01/03 00:41:45;;;;;;;12.88;9.43;;;9.20;83.80;;;;;;5049059;28;20215;-57
2023/01/03 00:44:12;;;;;;;12.65;9.98;;;9.10;83.70;;;;;;5035053;28;20545;-57
2023/01/03 00:46:38;;;;;;;10.73;8.63;;;9.00;83.60;;;;;;5036686;28;20030;-57
2023/01/03 00:49:05;;;;;;;14.30;10.60;;;9.00;83.60;;;;;;5037923;28;20139;-57
2023/01/03 00:51:32;;;;;;;11.82;9.82;;;8.90;83.70;;;;;;5051085;28;20527;-51
2023/01/03 00:54:01;;;;;;;15.65;11.15;;;8.90;83.70;;;;;;5036332;28;20091;-48
2023/01/03 00:56:29;;;;;;;15.68;11.05;;;8.80;83.30;;;;;;5038255;28;20046;-58
2023/01/03 00:58:56;;;;;;;13.18;10.50;;;8.80;83.30;;;;;;5044145;28;20341;-57
2023/01/03 01:01:24;;;;;;;13.05;10.45;;;8.60;83.30;;;;;;5033478;28;20037;-66
2023/01/03 01:04:11;;;;;;;13.13;10.52;;;8.60;83.40;;;;;;5042515;28;20053;-65
2023/01/03 01:06:43;;;;;;;12.00;10.18;;;8.50;83.60;;;;;;5049022;28;20489;-57
2023/01/03 01:09:13;;;;;;;14.98;11.25;;;8.50;83.60;;;;;;5041978;28;20044;-57
2023/01/03 01:11:40;;;;;;;11.57;9.73;;;8.50;83.80;;;;;;5038010;28;20037;-63
2023/01/03 01:14:27;;;;;;;13.95;10.68;;;8.40;83.90;;;;;;5032148;28;20068;-66
2023/01/03 01:17:01;;;;;;;13.40;10.15;;;8.40;83.90;;;;;;5031396;28;20484;-52
2023/01/03 01:19:33;;;;;;;12.00;9.52;;;8.30;84.10;;;;;;5044203;28;20041;-52
2023/01/03 01:21:58;;;;;;;13.25;9.82;;;8.30;84.60;;;;;;5033127;28;20468;-57
2023/01/03 01:24:24;;;;;;;12.75;10.13;;;8.40;84.60;;;;;;5032946;28;20056;-57
2023/01/03 01:26:50;;;;;;;13.68;10.32;;;8.30;84.20;;;;;;5047284;28;20040;-57
2023/01/03 01:29:17;;;;;;;13.65;10.90;;;8.30;83.90;;;;;;5042843;28;20030;-58
2023/01/03 01:31:44;;;;;;;12.10;9.82;;;8.20;83.70;;;;;;5032249;28;20112;-54
2023/01/03 01:34:10;;;;;;;11.63;9.48;;;8.20;83.70;;;;;;5036448;28;20045;-52
2023/01/03 01:36:38;;;;;;;13.88;10.43;;;8.10;83.90;;;;;;5032039;28;20082;-58
2023/01/03 01:39:06;;;;;;;12.38;10.73;;;8.10;84.00;;;;;;5031661;28;20028;-57
2023/01/03 01:44:44;;;;;;;13.55;10.52;;;8.10;84.40;;;;;;5033512;28;20458;-65
2023/01/03 01:47:22;;;;;;;12.85;10.00;;;8.10;84.50;;;;;;5020446;28;20056;-66
2023/01/03 01:49:51;;;;;;;14.15;10.07;;;8.10;84.70;;;;;;5033428;28;20103;-66
2023/01/03 01:52:18;;;;;;;15.90;11.60;;;8.10;84.50;;;;;;5042031;28;20382;-57
2023/01/03 01:54:45;;;;;;;16.92;11.85;;;8.10;84.70;;;;;;5048891;28;20039;-58
2023/01/03 01:57:15;;;;;;;18.00;12.02;;;8.10;85.80;;;;;;5041617;28;20456;-51
2023/01/03 01:59:42;;;;;;;15.97;11.73;;;8.20;86.50;;;;;;5032091;28;20032;-51
2023/01/03 02:02:08;;;;;;;18.08;13.30;;;8.30;87.00;;;;;;5050744;28;20033;-58
2023/01/03 02:04:36;;;;;;;15.70;10.95;;;8.40;87.40;;;;;;5030458;28;20056;-59
2023/01/03 02:07:02;;;;;;;14.73;11.40;;;8.50;87.60;;;;;;5033130;28;20041;-55
2023/01/03 02:09:31;;;;;;;16.63;11.63;;;8.60;87.70;;;;;;5036178;28;20037;-52
2023/01/03 02:15:27;;;;;;;15.05;10.88;;;8.80;87.80;;;;;;5029673;28;20040;-62
2023/01/03 02:18:08;;;;;;;13.85;11.18;;;8.80;87.60;;;;;;5028185;28;20551;-55
2023/01/03 02:20:33;;;;;;;15.10;11.40;;;8.80;87.70;;;;;;5034721;28;20076;-57
2023/01/03 02:23:17;;;;;;;12.90;10.43;;;8.80;87.80;;;;;;5043106;28;20423;-59
2023/01/03 02:26:03;;;;;;;11.73;9.80;;;8.90;88.00;;;;;;5045682;28;20468;-54
2023/01/03 02:28:45;;;;;;;11.43;9.23;;;8.90;88.00;;;;;;5052305;28;20029;-51
2023/01/03 02:31:32;;;;;;;13.48;10.35;;;8.90;87.90;;;;;;5035005;28;20026;-57
2023/01/03 02:34:06;;;;;;;13.02;10.18;;;8.90;88.00;;;;;;5031091;28;20049;-56
2023/01/03 02:36:52;;;;;;;13.38;9.60;;;9.00;88.00;;;;;;5033934;28;20068;-57
2023/01/03 02:40:04;;;;;;;12.82;10.10;;;9.00;88.10;;;;;;5035968;28;20040;-57
2023/01/03 02:42:57;;;;;;;;;;;9.00;87.90;;;;;;5016345;28;20507;-57
2023/01/03 02:45:22;;;;;;;13.95;9.98;;;9.00;88.00;;;;;;5041652;28;19924;-50
2023/01/03 02:47:54;;;;;;;13.02;10.77;;;9.00;87.70;;;;;;5049837;28;20402;-54
2023/01/03 02:50:25;;;;;;;15.10;11.18;;;9.10;87.80;;;;;;5042201;28;20064;-57
2023/01/03 02:52:53;;;;;;;17.70;11.95;;;9.10;87.90;;;;;;5037172;28;20392;-58
2023/01/03 02:55:23;;;;;;;16.83;11.75;;;9.10;87.80;;;;;;5037825;28;20032;-63
2023/01/03 02:58:04;;;;;;;17.13;12.18;;;9.10;87.80;;;;;;5040927;28;20033;-65
2023/01/03 03:00:32;;;;;;;17.02;11.70;;;9.10;87.70;;;;;;5049905;28;20168;-57
2023/01/03 03:03:05;;;;;;;17.17;12.52;;;9.10;87.70;;;;;;5051749;28;20053;-57
2023/01/03 03:05:42;;;;;;;17.63;12.77;;;9.10;88.00;;;;;;5044163;28;20033;-56
2023/01/03 03:08:08;;;;;;;19.80;14.13;;;9.10;87.80;;;;;;5044516;28;20036;-57
2023/01/03 03:13:23;;;;;;;18.63;14.93;;;9.10;87.80;;;;;;5048945;28;20051;-57
2023/01/03 03:15:57;;;;;;;20.67;14.50;;;9.00;87.60;;;;;;5051231;28;20043;-64
2023/01/03 03:18:58;;;;;;;16.35;13.73;;;9.00;87.70;;;;;;5046796;28;20471;-65
2023/01/03 03:28:33;;;;;;;19.27;12.77;;;8.90;88.00;;;;;;5030074;28;20494;-65
2023/01/03 03:29:57;;;;;;;17.92;14.23;;;8.90;88.20;;;;;;5035070;28;20325;-64
2023/01/03 03:32:25;;;;;;;17.00;12.10;;;8.90;88.80;;;;;;5033441;28;20091;-56
2023/01/03 03:34:54;;;;;;;14.00;11.07;;;8.80;88.30;;;;;;5033244;28;20495;-52
2023/01/03 03:37:22;;;;;;;15.40;10.25;;;8.80;88.60;;;;;;5040260;28;20359;-59
2023/01/03 03:45:33;;;;;;;12.00;9.32;;;8.80;89.20;;;;;;5034874;28;20064;-58
2023/01/03 03:48:15;;;;;;;12.20;9.63;;;8.70;88.80;;;;;;5047725;28;20061;-57
2023/01/03 03:50:49;;;;;;;;;;;8.80;88.40;;;;;;5042690;28;20029;-53
2023/01/03 03:53:19;;;;;;;11.95;8.80;;;8.70;87.70;;;;;;5044157;28;19909;-55
2023/01/03 03:56:00;;;;;;;11.25;9.93;;;8.70;87.90;;;;;;5039959;28;20033;-58
2023/01/03 03:58:30;;;;;;;12.32;9.68;;;8.70;88.40;;;;;;5049462;28;20028;-57
2023/01/03 04:00:57;;;;;;;10.82;9.73;;;8.60;88.10;;;;;;5039834;28;20025;-66
2023/01/03 04:03:24;;;;;;;15.02;11.05;;;8.50;88.20;;;;;;5043439;28;20042;-65
2023/01/03 04:05:57;;;;;;;15.20;10.68;;;8.40;89.00;;;;;;5042881;28;20451;-66
2023/01/03 04:08:23;;;;;;;12.20;9.73;;;8.40;88.60;;;;;;5032184;28;20033;-65
2023/01/03 04:10:49;;;;;;;12.02;10.20;;;8.40;89.10;;;;;;5042895;28;20029;-59
2023/01/03 04:13:15;;;;;;;13.45;10.32;;;8.30;89.30;;;;;;5044747;28;20119;-58
2023/01/03 04:15:40;;;;;;;14.27;11.02;;;8.30;89.30;;;;;;5050688;28;20167;-56
2023/01/03 04:18:06;;;;;;;12.73;10.40;;;8.30;89.40;;;;;;5049529;28;20086;-56
2023/01/03 04:20:31;;;;;;;12.18;10.15;;;8.20;89.30;;;;;;5050265;28;20029;-56
2023/01/03 04:22:57;;;;;;;12.13;10.20;;;8.20;89.40;;;;;;5031823;28;20029;-56
2023/01/03 04:25:23;;;;;;;13.98;10.60;;;8.10;89.60;;;;;;5048432;28;20029;-59
2023/01/03 04:27:49;;;;;;;13.73;10.70;;;8.10;89.70;;;;;;5051163;28;20131;-59
2023/01/03 04:30:15;;;;;;;12.98;9.95;;;8.00;89.80;;;;;;5047832;28;20495;-57
2023/01/03 04:32:40;;;;;;;11.85;9.52;;;8.00;89.90;;;;;;5044322;28;20036;-56
2023/01/03 04:35:06;;;;;;;13.25;10.55;;;8.00;90.00;;;;;;5038545;28;20356;-57
2023/01/03 04:37:32;;;;;;;13.05;9.95;;;7.90;90.00;;;;;;5037938;28;20079;-57
2023/01/03 04:39:57;;;;;;;12.45;9.77;;;7.90;90.00;;;;;;5038774;28;20065;-57
2023/01/03 04:45:08;;;;;;;12.40;9.95;;;7.90;90.20;;;;;;5036461;28;20044;-58
2023/01/03 04:47:33;;;;;;;11.82;10.15;;;7.90;90.20;;;;;;5044240;28;20029;-59
2023/01/03 04:49:59;;;;;;;12.55;10.27;;;7.80;90.20;;;;;;5049851;28;20026;-58
2023/01/03 04:52:25;;;;;;;12.60;10.43;;;7.80;90.20;;;;;;5040674;28;20076;-57
2023/01/03 04:54:50;;;;;;;12.20;9.60;;;7.80;90.30;;;;;;5044904;28;20042;-55
2023/01/03 04:57:16;;;;;;;11.68;9.55;;;7.80;90.40;;;;;;5032833;28;20037;-59
2023/01/03 04:59:41;;;;;;;14.70;10.55;;;7.80;90.40;;;;;;5041655;28;20040;-57
2023/01/03 05:02:07;;;;;;;13.05;10.45;;;7.80;90.50;;;;;;5032782;28;20029;-49
2023/01/03 05:04:33;;;;;;;12.23;10.43;;;7.80;90.50;;;;;;5032196;28;20571;-51
2023/01/03 05:06:59;;;;;;;11.65;9.88;;;7.70;90.50;;;;;;5037922;28;20026;-58
2023/01/03 05:09:26;;;;;;;11.60;9.65;;;7.80;90.60;;;;;;5032192;28;20464;-58
2023/01/03 05:11:51;;;;;;;12.95;10.48;;;7.80;90.70;;;;;;5042109;28;20116;-57
2023/01/03 05:14:17;;;;;;;13.40;10.07;;;7.90;90.60;;;;;;5037470;28;20116;-55
2023/01/03 05:16:43;;;;;;;12.95;9.88;;;7.90;90.40;;;;;;5032203;28;20044;-63
2023/01/03 05:19:09;;;;;;;15.38;11.25;;;8.00;90.20;;;;;;5040680;28;20087;-65
2023/01/03 05:27:04;;;;;;;12.63;9.90;;;7.90;90.00;;;;;;5033568;28;20036;-65
2023/01/03 05:29:32;;;;;;;12.90;10.10;;;7.90;90.20;;;;;;5045254;28;20037;-65
2023/01/03 05:31:58;;;;;;;14.95;10.15;;;7.90;90.20;;;;;;5045372;28;20017;-65
2023/01/03 05:34:24;;;;;;;12.52;9.75;;;7.90;90.20;;;;;;5035784;28;20128;-64
2023/01/03 05:36:49;;;;;;;11.50;9.50;;;7.80;90.20;;;;;;5050130;28;20040;-57
2023/01/03 05:39:15;;;;;;;11.35;10.00;;;7.80;90.30;;;;;;5044281;28;20061;-57
2023/01/03 05:41:59;;;;;;;12.05;9.38;;;7.80;90.40;;;;;;5043287;28;20025;-57
2023/01/03 05:44:26;;;;;;;14.30;9.43;;;7.80;90.50;;;;;;5039241;28;20041;-58
2023/01/03 05:46:52;;;;;;;14.18;9.90;;;7.80;90.50;;;;;;5050077;28;20088;-52
2023/01/03 05:49:17;;;;;;;12.82;9.57;;;7.90;90.60;;;;;;5045279;28;20443;-53
2023/01/03 05:51:43;;;;;;;11.43;9.65;;;7.90;90.50;;;;;;5043098;28;20033;-52
2023/01/03 05:54:13;;;;;;;13.30;9.90;;;8.00;90.50;;;;;;5040085;28;20044;-55
2023/01/03 05:56:38;;;;;;;14.13;9.73;;;8.10;90.40;;;;;;5040601;28;20036;-55
2023/01/03 05:59:06;;;;;;;12.27;9.95;;;8.10;90.20;;;;;;5043841;28;20025;-53
2023/01/03 06:01:32;;;;;;;12.40;8.88;;;8.10;90.20;;;;;;5040786;28;20093;-53
2023/01/03 06:03:58;;;;;;;13.80;9.80;;;8.10;90.20;;;;;;5039535;28;20536;-53
2023/01/03 06:06:25;;;;;;;15.07;10.88;;;8.10;90.20;;;;;;5043145;28;20442;-52
2023/01/03 06:08:51;;;;;;;12.68;9.18;;;8.20;90.10;;;;;;5037389;28;20037;-47
2023/01/03 06:11:17;;;;;;;13.60;10.18;;;8.20;89.90;;;;;;5039489;28;20040;-51
2023/01/03 06:13:43;;;;;;;14.10;10.80;;;8.30;89.50;;;;;;5047756;28;20040;-54
2023/01/03 06:18:56;;;;;;;14.68;10.80;;;8.30;88.80;;;;;;5039757;28;20474;-52
2023/01/03 06:21:22;;;;;;;18.67;11.85;;;8.30;88.90;;;;;;5027595;28;20036;-53
2023/01/03 06:23:48;;;;;;;16.70;12.18;;;8.30;89.00;;;;;;5031814;28;20052;-54
2023/01/03 06:26:14;;;;;;;14.52;10.73;;;8.30;89.10;;;;;;5034440;28;20113;-52
2023/01/03 06:28:40;;;;;;;17.00;12.18;;;8.20;89.40;;;;;;5036756;28;20124;-53
2023/01/03 06:31:06;;;;;;;17.15;11.80;;;8.10;89.50;;;;;;5030615;28;20806;-58
2023/01/03 06:33:32;;;;;;;12.95;9.73;;;8.10;89.80;;;;;;5030185;28;20431;-59
2023/01/03 06:36:04;;;;;;;13.18;9.80;;;8.10;90.10;;;;;;5036701;28;20037;-58
2023/01/03 06:38:31;;;;;;;14.05;10.50;;;8.20;90.10;;;;;;5028304;28;20053;-58
2023/01/03 06:40:57;;;;;;;11.60;9.07;;;8.20;90.00;;;;;;5032492;28;20041;-59
2023/01/03 06:43:22;;;;;;;13.35;10.10;;;8.20;90.00;;;;;;5029228;28;20037;-58
2023/01/03 06:54:06;;;;;;;14.27;10.50;;;8.20;89.80;;;;;;5040736;28;20087;-60
2023/01/03 06:56:32;;;;;;;13.82;9.60;;;8.20;89.80;;;;;;5030586;28;20033;-66
2023/01/03 06:58:57;;;;;;;12.02;9.75;;;8.20;90.00;;;;;;5030771;28;20420;-61
2023/01/03 07:01:23;;;;;;;12.48;9.93;;;8.10;90.00;;;;;;5036362;28;20104;-58
2023/01/03 07:03:49;;;;;;;13.18;10.65;;;8.10;90.10;;;;;;5033974;28;20044;-58
2023/01/03 07:06:15;;;;;;;12.68;10.10;;;8.10;90.20;;;;;;5044956;28;20033;-58
2023/01/03 07:08:41;;;;;;;14.27;9.88;;;8.10;90.20;;;;;;5044410;28;20044;-59
2023/01/03 07:11:06;;;;;;;14.02;10.32;;;8.10;90.30;;;;;;5040758;28;20087;-58
2023/01/03 07:16:18;;;;;;;11.25;8.63;;;8.10;90.30;;;;;;5048633;28;20071;-59
2023/01/03 07:18:44;;;;;;;12.90;9.27;;;8.10;90.30;;;;;;5048460;28;20032;-59
2023/01/03 07:21:10;;;;;;;27.92;20.33;;;8.20;90.20;;;;;;5038120;28;20068;-58
2023/01/03 07:23:36;;;;;;;16.77;12.05;;;8.20;90.20;;;;;;5032993;28;20037;-58
2023/01/03 07:26:03;;;;;;;14.85;11.10;;;8.30;90.30;;;;;;5028740;28;20041;-53
2023/01/03 07:28:28;;;;;;;16.83;12.05;;;8.30;90.30;;;;;;5031733;28;20032;-55
2023/01/03 07:31:03;;;;;;;13.32;9.90;;;8.40;90.20;;;;;;5033930;28;20026;-56
2023/01/03 07:33:29;;;;;;;13.32;10.30;;;8.40;90.40;;;;;;5031589;28;20087;-55
2023/01/03 07:36:02;;;;;;;16.52;11.52;;;8.40;90.20;;;;;;5038666;28;20029;-58
2023/01/03 07:38:28;;;;;;;15.18;11.60;;;8.50;90.00;;;;;;5034450;28;20490;-59
2023/01/03 07:41:01;;;;;;;13.63;9.65;;;8.50;89.80;;;;;;5028374;28;20056;-58
2023/01/03 07:43:36;;;;;;;14.18;10.90;;;8.50;89.80;;;;;;5032487;28;20098;-58
2023/01/03 07:46:14;;;;;;;14.30;10.27;;;8.50;89.60;;;;;;5039271;28;20041;-59
2023/01/03 07:48:40;;;;;;;15.70;11.02;;;8.50;89.70;;;;;;5032937;28;20083;-59
2023/01/03 07:51:08;;;;;;;13.05;10.65;;;8.50;89.80;;;;;;5043809;28;20398;-58
2023/01/03 07:53:34;;;;;;;13.85;11.88;;;8.50;89.80;;;;;;5031859;28;20048;-58
2023/01/03 07:56:03;;;;;;;15.15;10.90;;;8.60;89.90;;;;;;5033984;28;20033;-59
2023/01/03 07:58:28;;;;;;;13.55;10.15;;;8.60;90.10;;;;;;5043688;28;20033;-60
2023/01/03 08:00:54;;;;;;;13.43;10.02;;;8.60;90.00;;;;;;5034036;28;20025;-64
2023/01/03 08:03:20;;;;;;;12.75;9.27;;;8.60;89.80;;;;;;5036190;28;20053;-64
2023/01/03 08:05:45;;;;;;;14.75;11.70;;;8.60;89.80;;;;;;5035822;28;20159;-66
2023/01/03 08:08:11;;;;;;;14.70;10.13;;;8.70;89.80;;;;;;5036275;28;20030;-66
2023/01/03 08:13:21;;;;;;;13.93;10.95;;;8.70;89.60;;;;;;5034983;28;20367;-59
2023/01/03 08:15:54;;;;;;;14.95;11.38;;;8.80;89.70;;;;;;5034636;28;20041;-66
2023/01/03 08:18:22;;;;;;;14.77;10.85;;;8.80;89.50;;;;;;5033327;28;20076;-67
2023/01/03 08:20:48;;;;;;;14.55;11.25;;;8.80;89.50;;;;;;5032241;28;20028;-62
2023/01/03 08:23:14;;;;;;;13.52;10.25;;;8.90;89.40;;;;;;5037382;28;20060;-64
2023/01/03 08:25:40;;;;;;;13.60;10.43;;;8.90;89.20;;;;;;5041377;28;20065;-58
2023/01/03 08:28:07;;;;;;;14.82;11.00;;;9.00;89.20;;;;;;5033388;28;20033;-58
2023/01/03 08:30:38;;;;;;;15.77;10.70;;;9.00;89.10;;;;;;5030218;28;20044;-58
2023/01/03 08:33:07;;;;;;;14.32;11.48;;;9.00;89.00;;;;;;5022391;28;20419;-57
2023/01/03 08:35:35;;;;;;;13.25;10.32;;;9.10;89.00;;;;;;5035372;28;20055;-59
2023/01/03 08:38:04;;;;;;;12.77;9.68;;;9.10;89.00;;;;;;5033979;28;20020;-60
2023/01/03 08:40:32;;;;;;;14.95;11.00;;;9.10;88.90;;;;;;5033423;28;20033;-58
2023/01/03 08:42:57;;;;;;;14.02;10.35;;;9.10;88.60;;;;;;5036391;28;20108;-58
2023/01/03 08:45:25;;;;;;;12.82;10.25;;;9.10;88.60;;;;;;5028826;28;20129;-60
2023/01/03 08:47:52;;;;;;;12.55;10.07;;;9.10;88.80;;;;;;5034699;28;20108;-60
2023/01/03 08:50:19;;;;;;;13.25;10.80;;;9.10;89.10;;;;;;5031957;28;20033;-64
2023/01/03 08:52:45;;;;;;;14.85;11.05;;;9.20;89.10;;;;;;5031748;28;20057;-64
2023/01/03 08:55:10;;;;;;;12.98;10.40;;;9.20;89.10;;;;;;5039799;28;20071;-63
2023/01/03 08:57:36;;;;;;;13.63;11.23;;;9.20;89.00;;;;;;5043690;28;20399;-58
2023/01/03 09:00:04;;;;;;;14.23;11.25;;;9.20;89.00;;;;;;5035894;28;20033;-59
2023/01/03 09:02:33;;;;;;;14.98;11.13;;;9.20;88.90;;;;;;5038499;28;20116;-58
2023/01/03 09:04:59;;;;;;;14.10;10.68;;;9.20;89.10;;;;;;5038554;28;20049;-58
2023/01/03 09:07:25;;;;;;;13.40;10.10;;;9.20;89.00;;;;;;5043043;28;20111;-66
2023/01/03 09:09:50;;;;;;;15.55;11.70;;;9.20;89.20;;;;;;5024738;28;20109;-67
2023/01/03 09:12:16;;;;;;;15.88;11.43;;;9.30;89.40;;;;;;5028862;28;20038;-67
2023/01/03 09:14:41;;;;;;;13.68;10.20;;;9.30;89.20;;;;;;5030802;28;20103;-62
2023/01/03 09:17:07;;;;;;;15.75;11.75;;;9.40;88.90;;;;;;5038983;28;20029;-60
2023/01/03 09:19:33;;;;;;;15.43;12.02;;;9.50;88.80;;;;;;5037278;28;20025;-60
2023/01/03 09:21:58;;;;;;;13.63;10.88;;;9.50;88.50;;;;;;5036533;28;20422;-58
2023/01/03 09:24:24;;;;;;;15.75;11.73;;;9.50;88.40;;;;;;5042981;28;20091;-58
2023/01/03 09:26:49;;;;;;;16.55;13.20;;;9.50;88.30;;;;;;5033239;28;20551;-65
2023/01/03 09:29:15;;;;;;;15.23;11.07;;;9.50;88.10;;;;;;5030358;28;20037;-67
2023/01/03 09:31:41;;;;;;;14.90;12.25;;;9.50;88.20;;;;;;5034965;28;20044;-59
2023/01/03 09:34:06;;;;;;;15.85;11.98;;;9.50;88.10;;;;;;5038413;28;20439;-58
2023/01/03 09:36:33;;;;;;;13.80;11.15;;;9.50;88.00;;;;;;5032280;28;20028;-59
2023/01/03 09:38:59;;;;;;;15.35;11.55;;;9.40;88.20;;;;;;5033500;28;20025;-59
2023/01/03 09:41:27;;;;;;;13.00;10.52;;;9.40;88.50;;;;;;5038238;28;20083;-58
2023/01/03 09:44:05;;;;;;;14.45;11.80;;;9.40;88.70;;;;;;5031827;28;20065;-57
2023/01/03 09:46:34;;;;;;;14.60;10.73;;;9.40;88.80;;;;;;5029216;28;20490;-64
2023/01/03 09:49:00;;;;;;;14.07;10.63;;;9.40;89.00;;;;;;5031179;28;20021;-67
2023/01/03 10:03:44;;;;;;;13.25;10.63;;;9.50;89.60;;;;;;5028653;28;20073;-59
2023/01/03 10:06:44;;;;;;;11.13;9.88;;;9.60;89.50;;;;;;5029438;28;20036;-59
2023/01/03 10:09:35;;;;;;;14.50;10.80;;;9.70;89.40;;;;;;5022371;28;20041;-59
2023/01/03 10:12:16;;;;;;;11.63;9.27;;;9.80;89.40;;;;;;5035016;28;20026;-59
2023/01/03 10:15:04;;;;;;;12.30;9.73;;;9.90;89.40;;;;;;5032360;28;20029;-59
2023/01/03 10:17:49;;;;;;;12.13;9.40;;;10.10;89.30;;;;;;5034247;28;20369;-60
2023/01/03 10:20:41;;;;;;;13.57;9.52;;;10.20;89.30;;;;;;5033854;28;20037;-60
2023/01/03 10:23:09;;;;;;;11.43;8.57;;;10.30;89.20;;;;;;5029389;28;20544;-59
2023/01/03 10:25:37;;;;;;;9.40;8.40;;;10.50;89.00;;;;;;5026197;28;20642;-58
2023/01/03 10:28:11;;;;;;;10.88;8.88;;;10.60;88.80;;;;;;5036397;28;20109;-58
2023/01/03 10:31:14;;;;;;;11.88;8.57;;;10.80;88.50;;;;;;5035289;28;20069;-60
2023/01/03 10:33:49;;;;;;;11.07;8.57;;;10.80;88.10;;;;;;5022731;28;20101;-60
2023/01/03 10:36:17;;;;;;;9.82;8.50;;;10.90;87.80;;;;;;5033658;28;20033;-60
2023/01/03 10:38:46;;;;;;;10.18;8.50;;;11.00;87.60;;;;;;5032814;28;20361;-59
2023/01/03 10:41:32;;;;;;;10.30;8.23;;;11.10;87.50;;;;;;5039862;28;20044;-59
2023/01/03 10:44:02;;;;;;;8.07;7.28;;;11.20;87.30;;;;;;5036363;28;20033;-59
2023/01/03 10:46:29;;;;;;;11.32;9.48;;;11.30;87.10;;;;;;5034118;28;20117;-65
2023/01/03 10:49:10;;;;;;;11.98;8.75;;;11.40;86.90;;;;;;5045356;28;20140;-67
2023/01/03 10:51:39;;;;;;;11.05;9.20;;;11.40;86.70;;;;;;5044198;28;20037;-54
2023/01/03 10:54:17;;;;;;;10.05;8.65;;;11.40;86.10;;;;;;5038165;28;20052;-52
2023/01/03 10:56:44;;;;;;;11.52;9.68;;;11.50;85.70;;;;;;5036630;28;20531;-58
2023/01/03 10:59:19;;;;;;;10.70;8.57;;;11.40;85.50;;;;;;5041186;28;20065;-58
2023/01/03 11:01:56;;;;;;;11.80;9.00;;;11.40;85.80;;;;;;5033201;28;20060;-59
2023/01/03 11:04:23;;;;;;;10.00;8.45;;;11.30;85.40;;;;;;5033547;28;20041;-59
2023/01/03 11:06:57;;;;;;;11.77;9.63;;;11.30;85.50;;;;;;5035483;28;20080;-58
2023/01/03 11:09:23;;;;;;;10.68;9.02;;;11.20;85.40;;;;;;5035141;28;20034;-58
2023/01/03 11:11:58;;;;;;;11.60;8.93;;;11.20;85.60;;;;;;5034163;28;20059;-50
2023/01/03 11:14:26;;;;;;;10.70;9.23;;;11.20;85.50;;;;;;5042977;28;20033;-51
2023/01/03 11:16:58;;;;;;;11.55;9.55;;;11.10;85.50;;;;;;5029045;28;20133;-60
2023/01/03 11:19:27;;;;;;;12.27;10.18;;;11.10;85.50;;;;;;5032541;28;20116;-60
2023/01/03 11:22:19;;;;;;;11.98;9.85;;;11.10;85.70;;;;;;5030439;28;20109;-65
2023/01/03 11:25:27;;;;;;;11.63;9.00;;;11.10;85.70;;;;;;5038211;28;20037;-65
2023/01/03 11:28:17;;;;;;;11.23;8.93;;;11.00;85.50;;;;;;5044636;28;20094;-58
2023/01/03 11:30:59;;;;;;;10.82;8.93;;;11.00;85.60;;;;;;5047235;28;20037;-58
2023/01/03 11:33:57;;;;;;;15.27;11.90;;;11.00;85.70;;;;;;5033960;28;20088;-57
2023/01/03 11:36:47;;;;;;;12.52;10.25;;;11.00;85.40;;;;;;5033846;28;20041;-65
2023/01/03 11:39:25;;;;;;;12.57;9.25;;;11.00;85.60;;;;;;5033833;28;20041;-66
2023/01/03 11:42:03;;;;;;;10.93;8.63;;;11.00;85.70;;;;;;5041430;28;20859;-66
2023/01/03 11:45:00;;;;;;;11.10;9.05;;;11.00;85.70;;;;;;5044484;28;20037;-66
2023/01/03 11:47:48;;;;;;;10.63;8.90;;;11.00;85.50;;;;;;5041869;28;20107;-54
2023/01/03 11:50:47;;;;;;;11.63;9.10;;;11.00;85.60;;;;;;5037825;28;20033;-59
2023/01/03 11:53:30;;;;;;;13.07;9.57;;;11.10;85.50;;;;;;5038788;28;20053;-58
2023/01/03 11:56:01;;;;;;;13.02;9.23;;;11.10;85.50;;;;;;5033698;28;20037;-66
2023/01/03 11:58:55;;;;;;;11.43;9.27;;;11.10;85.70;;;;;;5040291;28;20044;-64
2023/01/03 12:01:51;;;;;;;10.93;8.90;;;11.10;85.40;;;;;;5029736;28;20041;-58
2023/01/03 12:04:31;;;;;;;10.88;8.95;;;11.10;85.50;;;;;;5034269;28;20629;-58
2023/01/03 12:07:14;;;;;;;12.45;9.05;;;11.20;85.50;;;;;;5048451;28;20473;-58
2023/01/03 12:09:53;;;;;;;9.75;7.88;;;11.20;85.20;;;;;;5039802;28;20037;-60
2023/01/03 12:12:34;;;;;;;12.10;9.27;;;11.30;85.20;;;;;;5040606;28;20032;-59
2023/01/03 12:15:23;;;;;;;10.38;8.55;;;11.30;85.10;;;;;;5044238;28;20037;-58
2023/01/03 12:17:58;;;;;;;11.57;8.85;;;11.40;84.80;;;;;;5043004;28;20067;-57
2023/01/03 12:20:52;;;;;;;11.02;8.93;;;11.40;84.70;;;;;;5044294;28;20061;-67
2023/01/03 12:23:26;;;;;;;13.60;8.25;;;11.50;84.60;;;;;;5035046;28;20125;-66
2023/01/03 12:25:56;;;;;;;10.30;8.07;;;11.50;84.60;;;;;;5037665;28;20030;-59
2023/01/03 12:28:35;;;;;;;10.07;8.07;;;11.50;84.60;;;;;;5026662;28;20043;-57
2023/01/03 12:31:13;;;;;;;10.30;8.63;;;11.60;84.50;;;;;;5058004;28;20525;-56
2023/01/03 12:34:06;;;;;;;10.98;8.85;;;11.60;84.20;;;;;;5041930;28;20036;-57
2023/01/03 12:36:56;;;;;;;10.85;8.05;;;11.70;84.00;;;;;;5023633;28;20068;-64
2023/01/03 12:39:37;;;;;;;10.30;8.85;;;11.70;83.80;;;;;;5033875;28;20037;-66
2023/01/03 12:42:35;;;;;;;10.27;8.35;;;11.80;83.50;;;;;;5027075;28;20113;-70
2023/01/03 12:45:06;;;;;;;10.15;7.78;;;11.80;83.40;;;;;;5024052;28;20037;-69
2023/01/03 12:47:47;;;;;;;13.05;8.40;;;11.80;83.30;;;;;;5032353;28;20025;-65
2023/01/03 12:50:32;;;;;;;11.90;8.63;;;11.80;83.80;;;;;;5044083;28;20467;-66
2023/01/03 12:53:04;;;;;;;10.18;7.85;;;11.90;83.10;;;;;;5045026;28;20036;-67
2023/01/03 12:55:52;;;;;;;10.32;8.32;;;11.90;83.10;;;;;;5031077;28;20038;-66
2023/01/03 12:58:36;;;;;;;10.23;8.57;;;11.90;82.80;;;;;;5035762;28;20029;-68
2023/01/03 13:01:10;;;;;;;10.52;8.20;;;11.90;82.70;;;;;;5029665;28;20104;-63
2023/01/03 13:03:44;;;;;;;9.80;8.25;;;11.90;82.70;;;;;;5029897;28;20384;-68
2023/01/03 13:06:16;;;;;;;10.82;8.80;;;11.90;82.60;;;;;;5029485;28;20025;-67
2023/01/03 13:08:45;;;;;;;12.38;9.63;;;11.80;82.30;;;;;;5032047;28;20029;-70
2023/01/03 13:11:26;;;;;;;10.90;8.85;;;11.80;82.30;;;;;;5030251;28;20030;-59
2023/01/03 13:13:54;;;;;;;10.70;8.43;;;11.70;82.50;;;;;;5029797;28;20025;-60
2023/01/03 13:16:50;;;;;;;11.40;8.23;;;11.70;82.80;;;;;;5031751;28;20037;-58
2023/01/03 13:19:21;;;;;;;11.27;8.82;;;11.60;82.70;;;;;;5025977;28;20868;-57
2023/01/03 13:21:53;;;;;;;10.43;7.95;;;11.60;83.00;;;;;;5032061;28;20100;-60
2023/01/03 13:24:37;;;;;;;9.88;7.82;;;11.60;83.20;;;;;;5032010;28;20030;-60
2023/01/03 13:27:24;;;;;;;9.18;7.63;;;11.50;83.00;;;;;;5025629;28;20056;-58
2023/01/03 13:29:49;;;;;;;10.82;8.70;;;11.50;83.10;;;;;;5031583;28;20033;-58
2023/01/03 13:32:21;;;;;;;12.43;8.35;;;11.50;83.30;;;;;;5035683;28;20379;-66
2023/01/03 13:34:52;;;;;;;;;;;11.50;83.20;;;;;;5033637;28;20048;-68
2023/01/03 13:37:25;;;;;;;10.23;8.20;;;11.40;82.90;;;;;;5037369;28;19909;-65
2023/01/03 13:39:51;;;;;;;11.18;8.88;;;11.40;83.30;;;;;;5040572;28;20045;-67
2023/01/03 13:42:31;;;;;;;12.05;8.60;;;11.40;83.30;;;;;;5036992;28;20073;-67
2023/01/03 13:45:18;;;;;;;11.00;9.07;;;11.40;83.40;;;;;;5039384;28;20037;-68
2023/01/03 13:47:52;;;;;;;12.55;9.70;;;11.30;83.20;;;;;;5042705;28;20536;-59
2023/01/03 13:50:19;;;;;;;11.50;9.07;;;11.30;83.40;;;;;;5042695;28;20032;-59
2023/01/03 13:53:23;;;;;;;11.40;9.05;;;11.30;83.50;;;;;;5039106;28;20134;-60
2023/01/03 13:56:17;;;;;;;10.82;8.45;;;11.30;83.70;;;;;;5037378;28;20033;-58
2023/01/03 13:58:47;;;;;;;11.05;8.20;;;11.20;83.80;;;;;;5044530;28;20041;-58
2023/01/03 14:01:32;;;;;;;12.05;8.63;;;11.20;84.10;;;;;;5035167;28;20843;-59